METAR AND TAF INFORMATION
METAR FOR SKVP
ADDS - METARS form results

(2138 UTC 20 May 2019)
Data provider http://aviationweather.gov/metar/data/
 
METAR text: SKVP 202100Z 18005KT 9999 FEW020TCU 34/22 A2980 RMK TCU E/SE
Conditions at: SKVP (VALLEDUPAR/ALFON, CO) observed 2100 UTC 20 May 2019
Temperature: 34.0°C (93°F)
Dewpoint: 22.0°C (72°F) [RH = 50%]
Pressure (altimeter): 29.80 inches Hg (1009.2 mb)
Winds: from the S (180 degrees) at 6 MPH (5 knots; 2.6 m/s)
Visibility: 6 or more miles (10+ km)
Ceiling: at least 12,000 feet AGL
Clouds: few clouds at 2000 feet AGL
Weather: no significant weather observed at this time

 AIRPORT MAP

 RUNWAY INFORMATION
Runway 02 Runway length 6890 ft Runway width 98 ft
Runway elevation 449 ft Runway displaced threshold 0 ft Runway heading 10
Runway 20 Runway length 6890 ft Runway width 98 ft
Runway elevation 483 ft Runway displaced threshold 0 ft Runway heading 190

 AIRPORT FREQUENCIES
Type RDO Name VALLEDUPAR Frequency 348.8 MHZ
Type TWR Name TWR Frequency 118 MHZ

 AIRPORT NEAR NAVIGATION AIDS
Type NDB Name Valledupar Frequency 325 KHZ
Type VOR-DME Name Valledupar Frequency 114600 KHZ



Powered by Heron Airways VA. All Rights Reserved © 2009 [v2.6.2]